LFRQ/UIP METAR and TAF weather

Enter ICAO airport designator
Station Type Date Time Source
LFRQ METAR 2019/06/19 01:00 UTC NOAA

LFRQ 190100Z AUTO 33003KT CAVOK 16/15 Q1008


Station Type Date Time Source
LFRQ Decoded METAR 2019/06/19 01:00 UTC NOAA

Quimper, France (LFRQ) 47-58N 004-10W 94M
Jun 18, 2019 - 09:00 PM EDT / 2019.06.19 0100 UTC
Wind: from the NNW (330 degrees) at 3 MPH (3 KT):0
Visibility: greater than 7 mile(s):0
Temperature: 60 F (16 C)
Dew Point: 59 F (15 C)
Relative Humidity: 93%
Pressure (altimeter): 29.77 in. Hg (1008 hPa)
ob: LFRQ 190100Z AUTO 33003KT CAVOK 16/15 Q1008
cycle: 1

Station Type Date Time Source
LFRQ TAF 2019/06/18 21:06 UTC NOAA

TAF TAF LFRQ 182101Z 1821/1918 CNL

Example: see airport list